createdAt,value
2017-03-30T06:03:48.475Z,99.99
2017-03-30T06:05:10.075Z,99.99
2017-03-30T06:06:31.904Z,99.99
2017-03-30T06:07:54.344Z,99.99
2017-03-30T06:09:16.767Z,99.99
2017-03-30T06:10:39.338Z,99.99
2017-03-30T06:12:01.838Z,99.99
2017-03-30T06:13:23.385Z,99.99
2017-03-30T06:14:45.864Z,99.99
2017-03-30T06:16:07.677Z,99.71
2017-03-30T06:17:29.496Z,98.85
2017-03-30T06:18:50.986Z,99.14
2017-03-30T06:20:13.117Z,98.75
2017-03-30T06:21:35.325Z,97.33
2017-03-30T06:22:57.785Z,97.42
2017-03-30T06:24:19.614Z,96.84
2017-03-30T06:25:42.055Z,96.56
2017-03-30T06:27:04.275Z,95.17
2017-03-30T06:28:26.189Z,93.55
2017-03-30T06:29:47.707Z,93.55
2017-03-30T06:31:10.129Z,94.41
2017-03-30T06:32:31.701Z,95.41
2017-03-30T06:33:53.611Z,96.66
2017-03-30T06:35:16.075Z,98.23
2017-03-30T06:36:38.208Z,98.33
2017-03-30T06:38:00.348Z,99.38
2017-03-30T06:39:21.525Z,99.99
2017-03-30T06:40:43.013Z,99.99
2017-03-30T06:42:05.086Z,99.99
2017-03-30T06:43:26.682Z,99.99
2017-03-30T06:44:48.506Z,99.99
2017-03-30T06:46:10.378Z,99.99
2017-03-30T06:47:33.206Z,99.99
2017-03-30T06:48:55.139Z,99.99
2017-03-30T06:50:17.303Z,99.99
2017-03-30T06:51:39.217Z,99.99
2017-03-30T06:53:01.657Z,99.99
2017-03-30T06:54:23.475Z,99.99
2017-03-30T06:55:45.605Z,99.99
2017-03-30T06:57:07.786Z,99.99
2017-03-30T06:58:29.863Z,99.99
2017-03-30T06:59:52.115Z,99.99
2017-03-30T07:01:14.096Z,99.99
2017-03-30T07:02:36.244Z,99.99
2017-03-30T07:03:58.684Z,99.99
2017-03-30T07:05:20.846Z,99.99
2017-03-30T07:06:43.306Z,99.99
2017-03-30T07:08:05.164Z,99.99
2017-03-30T07:09:27.707Z,99.99
2017-03-30T07:10:49.586Z,99.99
2017-03-30T07:12:11.403Z,99.99
2017-03-30T07:13:33.238Z,99.99
2017-03-30T07:14:55.604Z,99.99
2017-03-30T07:16:16.884Z,99.99
2017-03-30T07:17:38.847Z,99.99
2017-03-30T07:19:01.023Z,99.99
2017-03-30T07:20:23.144Z,99.99
2017-03-30T07:21:45.753Z,99.9
2017-03-30T07:23:07.584Z,99.8
2017-03-30T07:24:29.727Z,99.38
2017-03-30T07:25:51.858Z,98.71
2017-03-30T07:27:14.016Z,98.71
2017-03-30T07:28:36.503Z,98.8
2017-03-30T07:29:58.653Z,98.13
2017-03-30T07:31:20.404Z,98.23
2017-03-30T07:32:42.560Z,98.13
2017-03-30T07:34:04.366Z,97.66
2017-03-30T07:35:26.575Z,97.33
2017-03-30T07:36:48.764Z,96.56
2017-03-30T07:38:10.578Z,95.7
2017-03-30T07:39:32.718Z,95.12
2017-03-30T07:40:54.266Z,95.79
2017-03-30T07:42:16.740Z,95.51
2017-03-30T07:43:39.220Z,95.03
2017-03-30T07:45:00.939Z,94.46
2017-03-30T07:46:23.162Z,94.36
2017-03-30T07:47:46.190Z,93.79
2017-03-30T07:49:08.465Z,93.64
2017-03-30T07:50:30.402Z,92.3
2017-03-30T07:51:52.230Z,91.11
2017-03-30T07:53:14.642Z,89.95
2017-03-30T07:54:36.465Z,88.37
2017-03-30T07:55:58.636Z,87.61
2017-03-30T07:57:21.099Z,86.6
2017-03-30T07:58:43.551Z,85.25
2017-03-30T08:00:05.366Z,84.2
2017-03-30T08:01:27.897Z,84.39
2017-03-30T08:02:49.736Z,83
2017-03-30T08:04:11.834Z,82.14
2017-03-30T08:05:33.675Z,81.66
2017-03-30T08:06:55.519Z,81.27
2017-03-30T08:08:18.005Z,80.35
2017-03-30T08:09:40.709Z,79.21
2017-03-30T08:11:03.015Z,79.11
2017-03-30T08:12:25.515Z,80.51
2017-03-30T08:13:47.685Z,81.08
2017-03-30T08:15:10.120Z,80.94
2017-03-30T08:16:31.944Z,81.81
2017-03-30T08:17:54.085Z,82.19
2017-03-30T08:19:16.244Z,81.9
2017-03-30T08:20:39.026Z,81.9
2017-03-30T08:22:01.243Z,82
2017-03-30T08:23:22.824Z,80.85
2017-03-30T08:24:44.479Z,81.04
2017-03-30T08:26:06.625Z,81.18
2017-03-30T08:27:30.345Z,79.64
2017-03-30T08:28:52.169Z,78.34
2017-03-30T08:30:13.682Z,77.58
2017-03-30T08:31:35.816Z,77.76
2017-03-30T08:32:57.961Z,77.86
2017-03-30T08:34:20.416Z,76.52
2017-03-30T08:35:42.983Z,75.79
2017-03-30T08:37:05.073Z,75.6
2017-03-30T08:38:26.906Z,75.12
2017-03-30T08:39:49.034Z,74.26
2017-03-30T08:41:11.238Z,74.1
2017-03-30T08:42:33.417Z,73.91
2017-03-30T08:43:55.576Z,74.29
2017-03-30T08:45:17.845Z,73.43
2017-03-30T08:46:39.991Z,72.95
2017-03-30T08:48:02.483Z,72.95
2017-03-30T08:49:25.044Z,71.89
2017-03-30T08:50:46.881Z,72.28
2017-03-30T08:52:08.223Z,72.37
2017-03-30T08:53:30.714Z,71.61
2017-03-30T08:54:52.723Z,72.08
2017-03-30T08:56:14.934Z,71.31
2017-03-30T08:57:37.215Z,71.7
2017-03-30T08:58:59.828Z,71.83
2017-03-30T09:00:22.020Z,70.68
2017-03-30T09:01:43.855Z,69.46
2017-03-30T09:03:05.706Z,69.08
2017-03-30T09:04:27.815Z,69.75
2017-03-30T09:05:49.653Z,68.98
2017-03-30T09:07:11.797Z,69.08
2017-03-30T09:08:33.935Z,67.38
2017-03-30T09:09:55.706Z,67.48
2017-03-30T09:11:16.906Z,66.33
2017-03-30T09:12:38.745Z,66.04
2017-03-30T09:14:00.323Z,66.33
2017-03-30T09:15:22.516Z,66.14
2017-03-30T09:16:45.117Z,65.56
2017-03-30T09:18:07.590Z,65.17
2017-03-30T09:19:29.783Z,64.43
2017-03-30T09:20:51.877Z,64.34
2017-03-30T09:22:13.921Z,64.53
2017-03-30T09:23:36.416Z,64.34
2017-03-30T09:24:57.947Z,62.9
2017-03-30T09:26:20.463Z,62.71
2017-03-30T09:27:41.967Z,62.16
2017-03-30T09:29:03.183Z,62.93
2017-03-30T09:30:24.729Z,63.02
2017-03-30T09:31:46.991Z,63.41
2017-03-30T09:33:09.558Z,63.12
2017-03-30T09:34:32.031Z,63.15
2017-03-30T09:35:53.659Z,62.48
2017-03-30T09:37:15.388Z,62.32
2017-03-30T09:38:37.860Z,60.75
2017-03-30T09:40:00.105Z,60.46
2017-03-30T09:41:21.317Z,60.87
2017-03-30T09:42:42.787Z,60.49
2017-03-30T09:44:04.636Z,60.2
2017-03-30T09:45:26.826Z,60.58
2017-03-30T09:46:48.971Z,59.36
2017-03-30T09:48:11.055Z,59.27
2017-03-30T09:49:32.884Z,60
2017-03-30T09:50:54.776Z,60.52
2017-03-30T09:52:17.066Z,60.49
2017-03-30T09:53:39.481Z,59.72
2017-03-30T09:55:01.612Z,59.91
2017-03-30T09:56:23.291Z,59.72
2017-03-30T09:57:44.816Z,59.45
2017-03-30T09:59:07.296Z,59.27
2017-03-30T10:00:29.185Z,58.97
2017-03-30T10:01:50.824Z,59.07
2017-03-30T10:03:12.643Z,57.72
2017-03-30T10:04:35.093Z,57.53
2017-03-30T10:05:57.350Z,57.56
2017-03-30T10:07:19.831Z,57.14
2017-03-30T10:08:41.675Z,57.24
2017-03-30T10:10:03.846Z,58.11
2017-03-30T10:11:26.057Z,57.72
2017-03-30T10:12:47.574Z,57.46
2017-03-30T10:14:09.875Z,57.24
2017-03-30T10:15:32.001Z,56.95
2017-03-30T10:16:53.825Z,58.59
2017-03-30T10:18:15.996Z,57.92
2017-03-30T10:19:38.168Z,58.95
2017-03-30T10:21:01.013Z,58.78
2017-03-30T10:22:23.170Z,59.43
2017-03-30T10:23:44.695Z,59.33
2017-03-30T10:25:06.515Z,59.04
2017-03-30T10:26:29.243Z,59.69
2017-03-30T10:27:50.454Z,60
2017-03-30T10:29:13.035Z,58.95
2017-03-30T10:30:35.190Z,59.52
2017-03-30T10:31:57.344Z,59.69
2017-03-30T10:33:19.505Z,58.85
2017-03-30T10:34:41.354Z,59.62
2017-03-30T10:36:03.495Z,59.72
2017-03-30T10:37:25.641Z,58.27
2017-03-30T10:38:47.491Z,59.14
2017-03-30T10:40:09.948Z,59.72
2017-03-30T10:41:31.778Z,59.72
2017-03-30T10:42:54.548Z,59.62
2017-03-30T10:44:16.803Z,59.72
2017-03-30T10:45:38.412Z,59.62
2017-03-30T10:47:00.246Z,58.37
2017-03-30T10:48:22.805Z,58.2
2017-03-30T10:49:45.335Z,57.37
2017-03-30T10:51:07.173Z,57.07
2017-03-30T10:52:28.706Z,55.94
2017-03-30T10:53:51.617Z,55.46
2017-03-30T10:55:13.453Z,55.56
2017-03-30T10:56:35.967Z,55.66
2017-03-30T10:57:57.938Z,54.4
2017-03-30T10:59:20.386Z,55.85
2017-03-30T11:00:41.911Z,55.73
2017-03-30T11:02:04.063Z,56.4
2017-03-30T11:03:26.237Z,56.69
2017-03-30T11:04:48.025Z,56.79
2017-03-30T11:06:09.225Z,57.27
2017-03-30T11:07:31.376Z,56.4
2017-03-30T11:08:53.862Z,55.34
2017-03-30T11:10:16.262Z,56.79
2017-03-30T11:11:37.806Z,56.88
2017-03-30T11:12:59.665Z,55.63
2017-03-30T11:14:21.960Z,56.59
2017-03-30T11:15:43.814Z,56.88
2017-03-30T11:17:05.685Z,57.37
2017-03-30T11:18:27.223Z,59.97
2017-03-30T11:19:49.063Z,55.82
2017-03-30T11:21:11.850Z,55.92
2017-03-30T11:22:33.698Z,56.88
2017-03-30T11:23:56.195Z,56.4
2017-03-30T11:25:18.026Z,57.27
2017-03-30T11:26:40.486Z,56.11
2017-03-30T11:28:02.635Z,56.3
2017-03-30T11:29:24.895Z,56.11
2017-03-30T11:30:47.187Z,55.36
2017-03-30T11:32:09.790Z,54.91
2017-03-30T11:33:31.632Z,54.53
2017-03-30T11:34:53.783Z,54.62
2017-03-30T11:36:16.273Z,54.24
2017-03-30T11:37:38.803Z,54.72
2017-03-30T11:39:00.975Z,54.75
2017-03-30T11:40:23.114Z,53.88
2017-03-30T11:41:45.596Z,53.2
2017-03-30T11:43:08.003Z,52.91
2017-03-30T11:44:30.575Z,52.23
2017-03-30T11:45:52.405Z,53.37
2017-03-30T11:47:14.377Z,52.31
2017-03-30T11:48:36.785Z,52.98
2017-03-30T11:49:58.672Z,51.95
2017-03-30T11:51:20.866Z,51.2
2017-03-30T11:52:42.391Z,48.23
2017-03-30T11:54:04.862Z,48.32
2017-03-30T11:55:27.335Z,48.79
2017-03-30T11:56:49.639Z,48.88
2017-03-30T11:58:12.016Z,50.04
2017-03-30T11:59:34.120Z,50.21
2017-03-30T12:00:56.272Z,50.11
2017-03-30T12:02:18.522Z,50.21
2017-03-30T12:03:40.688Z,49.73
2017-03-30T12:05:03.147Z,49.92
2017-03-30T12:06:25.616Z,49.46
2017-03-30T12:07:47.817Z,49.07
2017-03-30T12:09:10.115Z,49.19
2017-03-30T12:10:32.566Z,49.97
2017-03-30T12:11:54.738Z,49.07
2017-03-30T12:13:16.571Z,48.79
2017-03-30T12:14:38.889Z,49.97
2017-03-30T12:16:01.616Z,49.19
2017-03-30T12:17:23.799Z,48.79
2017-03-30T12:18:45.327Z,49.46
2017-03-30T12:20:07.246Z,47.91
2017-03-30T12:21:30.042Z,49.17
2017-03-30T12:22:51.649Z,49.75
2017-03-30T12:24:13.852Z,49.95
2017-03-30T12:25:36.114Z,50.81
2017-03-30T12:26:58.637Z,51.68
2017-03-30T12:28:20.833Z,51.65
2017-03-30T12:29:43.379Z,52.23
2017-03-30T12:31:05.267Z,51.37
2017-03-30T12:34:19.076Z,52.14
2017-03-30T12:35:41.555Z,50.59
2017-03-30T12:37:03.811Z,49.53
2017-03-30T12:38:26.606Z,50.11
2017-03-30T12:39:49.086Z,50.5
2017-03-30T12:41:10.643Z,50.91
2017-03-30T12:42:32.836Z,50.11
2017-03-30T12:43:55.654Z,49.73
2017-03-30T12:45:17.803Z,50.91
2017-03-30T12:46:39.345Z,49.17
2017-03-30T12:48:01.565Z,49.19
2017-03-30T12:49:24.076Z,48.23
2017-03-30T12:50:46.238Z,47.05
2017-03-30T12:52:08.427Z,48.97
2017-03-30T12:53:29.947Z,48.71
2017-03-30T12:54:52.398Z,49.58
2017-03-30T12:56:14.277Z,48.97
2017-03-30T12:57:36.141Z,48.88
2017-03-30T12:58:57.992Z,49.95
2017-03-30T13:00:20.736Z,49.07
2017-03-30T13:01:42.607Z,48.49
2017-03-30T13:03:04.136Z,49.92
2017-03-30T13:04:25.974Z,49.85
2017-03-30T13:05:48.434Z,49.17
2017-03-30T13:07:11.071Z,48.59
2017-03-30T13:08:32.588Z,49.95
2017-03-30T13:09:54.423Z,48.79
2017-03-30T13:11:16.732Z,50.13
2017-03-30T13:12:38.912Z,50.13
2017-03-30T13:14:00.427Z,50.52
2017-03-30T13:15:21.946Z,48.3
2017-03-30T13:16:44.663Z,48.3
2017-03-30T13:18:07.150Z,48.21
2017-03-30T13:19:29.357Z,47.24
2017-03-30T13:20:51.214Z,48.21
2017-03-30T13:22:13.663Z,47.72
2017-03-30T13:23:35.219Z,49.85
2017-03-30T13:24:57.397Z,48.49
2017-03-30T13:26:19.577Z,48.47
2017-03-30T13:27:42.315Z,48.47
2017-03-30T13:29:04.147Z,48.66
2017-03-30T13:30:26.637Z,49.24
2017-03-30T13:31:49.251Z,49.02
2017-03-30T13:33:12.065Z,50.67
2017-03-30T13:34:34.252Z,50.21
2017-03-30T13:35:56.429Z,49.15
2017-03-30T13:37:18.595Z,48.95
2017-03-30T13:38:41.455Z,48.86
2017-03-30T13:40:03.943Z,48.66
2017-03-30T13:41:26.180Z,47.02
2017-03-30T13:42:48.167Z,48.47
2017-03-30T13:44:10.259Z,48.3
2017-03-30T13:45:32.432Z,47.91
2017-03-30T13:46:54.616Z,48.47
2017-03-30T13:48:16.768Z,49.15
2017-03-30T13:49:38.864Z,48.66
2017-03-30T13:51:01.416Z,49.05
2017-03-30T13:52:22.683Z,47.7
2017-03-30T13:53:44.925Z,48.28
2017-03-30T13:55:06.736Z,49.65
2017-03-30T13:56:29.234Z,48.39
2017-03-30T13:57:51.395Z,48.69
2017-03-30T13:59:12.995Z,48.59
2017-03-30T14:00:34.526Z,48.3
2017-03-30T14:01:56.771Z,47.43
2017-03-30T14:03:18.725Z,48.18
2017-03-30T14:04:41.307Z,48.37
2017-03-30T14:06:03.545Z,47.7
2017-03-30T14:07:25.397Z,47.12
2017-03-30T14:08:47.636Z,48.08
2017-03-30T14:10:09.888Z,49.05
2017-03-30T14:11:32.616Z,48.95
2017-03-30T14:12:55.107Z,48.57
2017-03-30T14:14:17.318Z,49.7
2017-03-30T14:15:39.839Z,51.05
2017-03-30T14:17:01.919Z,48.44
2017-03-30T14:18:24.117Z,49.12
2017-03-30T14:19:45.671Z,50.38
2017-03-30T14:21:07.518Z,51.63
2017-03-30T14:22:30.449Z,51.34
2017-03-30T14:23:52.928Z,50.09
2017-03-30T14:25:15.434Z,50.38
2017-03-30T14:26:37.284Z,50.09
2017-03-30T14:27:59.786Z,51.73
2017-03-30T14:29:21.937Z,52.01
2017-03-30T14:30:44.435Z,50.76
2017-03-30T14:32:06.617Z,49.9
2017-03-30T14:33:29.376Z,49.99
2017-03-30T14:34:51.876Z,50.47
2017-03-30T14:36:14.395Z,51.05
2017-03-30T14:37:36.665Z,51.82
2017-03-30T14:38:59.563Z,51.63
2017-03-30T14:40:21.403Z,51.73
2017-03-30T14:41:43.581Z,51.34
2017-03-30T14:43:05.744Z,50.86
2017-03-30T14:44:28.204Z,50.4
2017-03-30T14:45:50.368Z,48.95
2017-03-30T14:47:12.569Z,48.47
2017-03-30T14:48:34.520Z,49.24
2017-03-30T14:49:56.922Z,49.6
2017-03-30T14:51:19.503Z,51.05
2017-03-30T14:52:42.035Z,50.09
2017-03-30T14:54:03.597Z,50.96
2017-03-30T14:55:26.056Z,50.74
2017-03-30T14:56:48.545Z,49.68
2017-03-30T14:58:10.710Z,51.03
2017-03-30T14:59:33.224Z,51.03
2017-03-30T15:00:55.948Z,51.41
2017-03-30T15:02:18.437Z,50.93
2017-03-30T15:03:40.707Z,51.2
2017-03-30T15:05:02.944Z,51.1
2017-03-30T15:06:25.816Z,51.97
2017-03-30T15:07:48.319Z,52.45
2017-03-30T15:09:10.488Z,50.62
2017-03-30T15:10:32.985Z,51
2017-03-30T15:11:55.908Z,51.39
2017-03-30T15:13:18.073Z,51.58
2017-03-30T15:14:40.562Z,50.81
2017-03-30T15:16:02.749Z,50.04
2017-03-30T15:17:57.184Z,49.46
2017-03-30T15:19:19.049Z,50.21
2017-03-30T15:20:41.204Z,50.4
2017-03-30T15:22:02.739Z,50.88
2017-03-30T15:23:24.874Z,50.88
2017-03-30T15:24:47.360Z,50.01
2017-03-30T15:26:09.841Z,49.34
2017-03-30T15:27:31.996Z,50.21
2017-03-30T15:28:54.262Z,49.91
2017-03-30T15:30:16.897Z,49.63
2017-03-30T15:31:38.766Z,49.91
2017-03-30T15:33:01.263Z,50.49
2017-03-30T15:34:23.416Z,49.91
2017-03-30T15:35:45.899Z,50.88
2017-03-30T15:37:08.098Z,50.88
2017-03-30T15:38:30.279Z,50.88
2017-03-30T15:39:52.709Z,50.49
2017-03-30T15:41:14.863Z,51.65
2017-03-30T15:42:37.056Z,52.23
2017-03-30T15:43:59.545Z,51.56
2017-03-30T15:45:22.316Z,51.46
2017-03-30T15:46:44.833Z,51.94
2017-03-30T15:48:06.512Z,51.65
2017-03-30T15:49:28.043Z,52.33
2017-03-30T15:50:50.423Z,51.17
2017-03-30T15:52:12.892Z,51.26
2017-03-30T15:53:35.163Z,51.46
2017-03-30T15:54:57.433Z,50.88
2017-03-30T15:56:19.917Z,50.88
2017-03-30T15:57:41.887Z,50.49
2017-03-30T15:59:04.128Z,50.21
2017-03-30T16:00:26.326Z,51.07
2017-03-30T16:01:48.817Z,51.84
2017-03-30T16:03:10.686Z,51.65
2017-03-30T16:04:32.944Z,51.94
2017-03-30T16:05:54.797Z,52.33
2017-03-30T16:07:17.050Z,51.62
2017-03-30T16:08:39.573Z,52.04
2017-03-30T16:10:01.457Z,53.07
2017-03-30T16:11:23.648Z,54.03
2017-03-30T16:12:45.422Z,53.55
2017-03-30T16:14:07.965Z,52.49
2017-03-30T16:15:30.215Z,52.49
2017-03-30T16:16:52.729Z,52.49
2017-03-30T16:18:15.189Z,52.97
2017-03-30T16:19:37.364Z,52.97
2017-03-30T16:20:59.516Z,53.27
2017-03-30T16:22:21.397Z,53.07
2017-03-30T16:23:44.265Z,54.13
2017-03-30T16:25:06.760Z,52.87
2017-03-30T16:26:28.617Z,53.05
2017-03-30T16:27:51.095Z,53.33
2017-03-30T16:29:13.996Z,53.53
2017-03-30T16:30:35.885Z,53.33
2017-03-30T16:31:58.104Z,54.58
2017-03-30T16:33:20.365Z,54.97
2017-03-30T16:34:42.864Z,54
2017-03-30T16:36:05.335Z,54.49
2017-03-30T16:37:27.546Z,55.33
2017-03-30T16:38:49.393Z,56.29
2017-03-30T16:40:12.146Z,56.2
2017-03-30T16:41:34.317Z,56.29
2017-03-30T16:42:56.816Z,56.84
2017-03-30T16:44:18.703Z,56.45
2017-03-30T16:45:41.607Z,56.58
2017-03-30T16:47:04.095Z,57.15
2017-03-30T16:48:25.947Z,56.45
2017-03-30T16:49:47.505Z,56.84
2017-03-30T16:51:09.923Z,56.55
2017-03-30T16:52:31.761Z,56.55
2017-03-30T16:53:54.435Z,57.32
2017-03-30T16:55:15.973Z,57.32
2017-03-30T16:56:38.825Z,57.8
2017-03-30T16:58:00.995Z,58.45
2017-03-30T16:59:22.734Z,58.25
2017-03-30T17:00:45.437Z,57.97
2017-03-30T17:02:08.180Z,58.45
2017-03-30T17:03:30.473Z,58.92
2017-03-30T17:04:52.653Z,59.47
2017-03-30T17:06:15.190Z,60.05
2017-03-30T17:07:37.667Z,60.24
2017-03-30T17:08:59.503Z,61.58
2017-03-30T17:10:21.706Z,61.4
2017-03-30T17:11:44.045Z,61.46
2017-03-30T17:13:06.946Z,62.04
2017-03-30T17:14:29.438Z,62.23
2017-03-30T17:15:51.935Z,63.38
2017-03-30T17:17:14.171Z,62.96
2017-03-30T17:18:36.583Z,63.35
2017-03-30T17:19:58.415Z,62.96
2017-03-30T17:21:20.268Z,63.16
2017-03-30T17:22:42.112Z,64.22
2017-03-30T17:24:04.911Z,64.12
2017-03-30T17:25:26.771Z,64.5
2017-03-30T17:26:49.267Z,64.59
2017-03-30T17:28:11.466Z,64.4
2017-03-30T17:29:33.895Z,64.66
2017-03-30T17:30:56.364Z,65.62
2017-03-30T17:32:18.856Z,66.19
2017-03-30T17:33:41.437Z,65.91
2017-03-30T17:35:04.387Z,65.81
2017-03-30T17:36:26.869Z,65.97
2017-03-30T17:37:49.465Z,66.1
2017-03-30T17:39:12.202Z,65.72
2017-03-30T17:40:34.417Z,65.78
2017-03-30T17:41:56.913Z,65.49
2017-03-30T17:43:19.407Z,65.49
2017-03-30T17:44:41.595Z,65.01
2017-03-30T17:46:04.021Z,65.01
2017-03-30T17:47:26.516Z,64.92
2017-03-30T17:48:49.024Z,65.01
2017-03-30T17:50:11.636Z,65.59
2017-03-30T17:51:33.938Z,65.78
2017-03-30T17:52:56.440Z,66.16
2017-03-30T17:54:18.325Z,66.06
2017-03-30T17:55:40.532Z,65.88
2017-03-30T17:57:02.716Z,66.16
2017-03-30T17:58:24.888Z,66.55
2017-03-30T17:59:47.436Z,66.83
2017-03-30T18:01:09.972Z,67.18
2017-03-30T18:02:32.132Z,67.57
2017-03-30T18:03:54.335Z,68.14
2017-03-30T18:05:16.303Z,68.43
2017-03-30T18:06:38.835Z,69.2
2017-03-30T18:08:01.591Z,68.91
2017-03-30T18:09:24.066Z,68.97
2017-03-30T18:10:46.791Z,68.78
2017-03-30T18:12:09.023Z,68.87
2017-03-30T18:13:31.823Z,68.87
2017-03-30T18:14:54.166Z,69.17
2017-03-30T18:16:16.770Z,68.78
2017-03-30T18:17:38.966Z,69.07
2017-03-30T18:19:01.726Z,68.78
2017-03-30T18:20:23.901Z,68.78
2017-03-30T18:21:46.374Z,68.78
2017-03-30T18:23:08.886Z,69.07
2017-03-30T18:24:31.323Z,69.07
2017-03-30T18:25:53.506Z,69.17
2017-03-30T18:27:15.986Z,69.93
2017-03-30T18:28:38.505Z,69.35
2017-03-30T18:30:00.637Z,69.93
2017-03-30T18:31:22.515Z,70.41
2017-03-30T18:32:45.064Z,70.31
2017-03-30T18:34:07.227Z,70.79
2017-03-30T18:35:29.446Z,70.98
2017-03-30T18:36:51.991Z,71.46
2017-03-30T18:38:14.504Z,71.46
2017-03-30T18:39:36.998Z,71.84
2017-03-30T18:40:59.824Z,71.66
2017-03-30T18:42:22.355Z,72.32
2017-03-30T18:43:44.835Z,72.42
2017-03-30T18:45:06.687Z,72.67
2017-03-30T18:46:29.122Z,72.77
2017-03-30T18:47:51.687Z,72.86
2017-03-30T18:49:13.945Z,73.05
2017-03-30T18:50:36.167Z,72.67
2017-03-30T18:51:58.635Z,73.34
2017-03-30T18:53:21.138Z,73.54
2017-03-30T18:54:43.333Z,73.05
2017-03-30T18:56:05.837Z,73.82
2017-03-30T18:57:28.373Z,74.11
2017-03-30T18:58:50.818Z,74.11
2017-03-30T19:00:13.345Z,74.4
2017-03-30T19:01:35.848Z,74.3
2017-03-30T19:02:58.048Z,74.87
2017-03-30T19:04:20.215Z,74.65
2017-03-30T19:05:42.111Z,74.93
2017-03-30T19:07:04.325Z,75.41
2017-03-30T19:08:26.985Z,75.6
2017-03-30T19:09:49.266Z,76.37
2017-03-30T19:11:11.727Z,76.65
2017-03-30T19:12:33.612Z,77.7
2017-03-30T19:13:55.825Z,77.7
2017-03-30T19:15:18.036Z,77.76
2017-03-30T19:16:40.022Z,78.05
2017-03-30T19:18:02.600Z,78.34
2017-03-30T19:19:25.035Z,78.05
2017-03-30T19:20:47.300Z,78.14
2017-03-30T19:22:09.799Z,77.95
2017-03-30T19:23:31.979Z,78.34
2017-03-30T19:24:54.514Z,78.24
2017-03-30T19:26:16.409Z,78.24
2017-03-30T19:27:39.016Z,78.24
2017-03-30T19:29:01.532Z,78.53
2017-03-30T19:30:23.455Z,79.87
2017-03-30T19:31:45.659Z,79.68
2017-03-30T19:33:07.837Z,80.73
2017-03-30T19:34:30.432Z,81.78
2017-03-30T19:35:53.297Z,82.45
2017-03-30T19:37:15.487Z,82.51
2017-03-30T19:38:37.825Z,82.41
2017-03-30T19:40:00.326Z,82.89
2017-03-30T19:41:22.771Z,83.37
2017-03-30T19:42:45.080Z,83.17
2017-03-30T19:44:07.249Z,83.65
2017-03-30T19:45:29.406Z,84.03
2017-03-30T19:46:52.012Z,84.23
2017-03-30T19:48:14.185Z,84.32
2017-03-30T19:49:36.707Z,84.56
2017-03-30T19:50:59.042Z,84.85
2017-03-30T19:52:21.956Z,86.14
2017-03-30T19:53:43.503Z,86.19
2017-03-30T19:55:05.408Z,85.9
2017-03-30T19:56:27.567Z,85.81
2017-03-30T19:57:49.782Z,86.19
2017-03-30T19:59:12.424Z,86.57
2017-03-30T20:00:34.606Z,86.38
2017-03-30T20:01:56.534Z,86.57
2017-03-30T20:03:18.761Z,86.29
2017-03-30T20:04:40.620Z,86.29
2017-03-30T20:06:03.095Z,86.57
2017-03-30T20:07:25.277Z,86.76
2017-03-30T20:08:47.736Z,86.76
2017-03-30T20:10:10.025Z,86.57
2017-03-30T20:11:32.043Z,86.29
2017-03-30T20:12:53.903Z,86.38
2017-03-30T20:14:16.361Z,86.57
2017-03-30T20:15:38.565Z,86.38
2017-03-30T20:17:00.840Z,86.67
2017-03-30T20:18:22.669Z,87.05
2017-03-30T20:19:45.110Z,86.29
2017-03-30T20:21:07.260Z,86.9
2017-03-30T20:22:29.437Z,87
2017-03-30T20:23:51.911Z,86.86
2017-03-30T20:25:14.384Z,86.86
2017-03-30T20:26:36.878Z,86.47
2017-03-30T20:27:59.375Z,86.86
2017-03-30T20:29:21.249Z,87.24
2017-03-30T20:30:43.778Z,86.86
2017-03-30T20:32:05.987Z,87.05
2017-03-30T20:33:28.541Z,87.05
2017-03-30T20:34:50.833Z,87.05
2017-03-30T20:36:13.610Z,87.05
2017-03-30T20:37:35.453Z,86.47
2017-03-30T20:38:57.610Z,86.96
2017-03-30T20:40:19.480Z,87.15
2017-03-30T20:41:41.573Z,87.05
2017-03-30T20:43:04.057Z,86.57
2017-03-30T20:44:26.292Z,87.24
2017-03-30T20:45:48.750Z,86.86
2017-03-30T20:47:11.012Z,87.24
2017-03-30T20:48:33.369Z,87.15
2017-03-30T20:49:54.908Z,87.24
2017-03-30T20:51:17.092Z,87.15
2017-03-30T20:52:39.653Z,87.24
2017-03-30T20:54:01.622Z,87.05
2017-03-30T20:55:23.841Z,86.96
2017-03-30T20:56:46.327Z,87.34
2017-03-30T20:58:08.777Z,87.72
2017-03-30T20:59:31.272Z,87.43
2017-03-30T21:00:53.433Z,87.82
2017-03-30T21:02:15.601Z,88.1
2017-03-30T21:03:37.785Z,87.77
2017-03-30T21:04:59.993Z,88.01
2017-03-30T21:06:21.843Z,87.82
2017-03-30T21:07:43.997Z,87.96
2017-03-30T21:09:06.745Z,87.87
2017-03-30T21:10:29.201Z,87.77
2017-03-30T21:11:51.067Z,88.06
2017-03-30T21:13:13.268Z,88.25
2017-03-30T21:14:35.875Z,87.68
2017-03-30T21:15:58.087Z,88.34
2017-03-30T21:17:20.324Z,87.96
2017-03-30T21:18:42.205Z,88.54
2017-03-30T21:20:04.906Z,88.15
2017-03-30T21:21:26.779Z,88.34
2017-03-30T21:22:49.257Z,88.25
2017-03-30T21:24:11.456Z,88.44
2017-03-30T21:25:33.637Z,87.68
2017-03-30T21:26:55.143Z,87.96
2017-03-30T21:28:16.667Z,88.25
2017-03-30T21:29:38.902Z,87.77
2017-03-30T21:31:01.425Z,87.77
2017-03-30T21:32:22.947Z,87.87
2017-03-30T21:33:45.462Z,87.87
2017-03-30T21:35:07.346Z,87.1
2017-03-30T21:36:29.487Z,86.82
2017-03-30T21:37:51.325Z,86.91
2017-03-30T21:39:13.527Z,87.01
2017-03-30T21:40:35.373Z,87.2
2017-03-30T21:41:58.146Z,87.15
2017-03-30T21:43:19.655Z,87.39
2017-03-30T21:44:41.805Z,86.82
2017-03-30T21:46:03.955Z,87.1
2017-03-30T21:47:26.949Z,86.82
2017-03-30T21:48:49.405Z,86.72
2017-03-30T21:50:11.896Z,86.82
2017-03-30T21:51:34.045Z,86.91
2017-03-30T21:52:56.138Z,86.91
2017-03-30T21:54:18.606Z,86.34
2017-03-30T21:55:40.733Z,86.91
2017-03-30T21:57:02.568Z,87.2
2017-03-30T21:58:24.337Z,86.34
2017-03-30T21:59:46.897Z,87.1
2017-03-30T22:01:09.057Z,86.34
2017-03-30T22:02:31.517Z,86.43
2017-03-30T22:03:53.925Z,86.43
2017-03-30T22:05:15.868Z,86.15
2017-03-30T22:06:37.734Z,86.53
2017-03-30T22:07:59.241Z,86.24
2017-03-30T22:09:21.006Z,85.86
2017-03-30T22:10:43.140Z,86.82
2017-03-30T22:12:05.292Z,86.53
2017-03-30T22:13:27.495Z,86.43
2017-03-30T22:14:49.885Z,86.53
2017-03-30T22:16:44.107Z,86.91
2017-03-30T22:18:05.623Z,86.15
2017-03-30T22:19:27.447Z,86.63
2017-03-30T22:20:49.876Z,86.82
2017-03-30T22:22:11.706Z,87.1
2017-03-30T22:23:33.562Z,87.01
2017-03-30T22:24:55.386Z,87.01
2017-03-30T22:26:17.165Z,86.72
2017-03-30T22:27:39.007Z,86.91
2017-03-30T22:29:00.955Z,87.01
2017-03-30T22:30:22.772Z,86.72
2017-03-30T22:31:45.231Z,86.91
2017-03-30T22:33:07.066Z,86.63
2017-03-30T22:34:28.887Z,86.72
2017-03-30T22:35:50.087Z,87.48
2017-03-30T22:37:11.893Z,86.91
2017-03-30T22:38:33.723Z,87.58
2017-03-30T22:39:56.208Z,86.82
2017-03-30T22:41:18.361Z,87.29
2017-03-30T22:42:40.747Z,87.29
2017-03-30T22:44:03.217Z,87.68
2017-03-30T22:45:24.423Z,87.87
2017-03-30T22:46:46.281Z,87.77
2017-03-30T22:48:08.423Z,87.58
2017-03-30T22:49:30.555Z,87.68
2017-03-30T22:50:52.443Z,87.87
2017-03-30T22:52:14.273Z,88.15
2017-03-30T22:53:36.085Z,88.11
2017-03-30T22:54:57.925Z,88.4
2017-03-30T22:56:20.517Z,88.59
2017-03-30T22:57:42.711Z,88.3
2017-03-30T22:59:05.115Z,88.49
2017-03-30T23:00:26.963Z,88.59
2017-03-30T23:01:48.808Z,88.68
2017-03-30T23:03:10.633Z,88.78
2017-03-30T23:04:32.827Z,88.87
2017-03-30T23:05:54.348Z,89.35
2017-03-30T23:07:15.897Z,89.25
2017-03-30T23:08:36.766Z,88.97
2017-03-30T23:09:58.583Z,89.16
2017-03-30T23:11:20.087Z,88.87
2017-03-30T23:12:41.901Z,88.97
2017-03-30T23:14:04.048Z,88.68
2017-03-30T23:15:26.130Z,88.87
2017-03-30T23:16:48.385Z,89.25
2017-03-30T23:18:10.297Z,88.59
2017-03-30T23:19:31.802Z,88.97
2017-03-30T23:20:53.897Z,88.59
2017-03-30T23:22:15.461Z,88.3
2017-03-30T23:23:36.710Z,88.59
2017-03-30T23:24:58.969Z,89.25
2017-03-30T23:26:21.198Z,89.06
2017-03-30T23:27:43.014Z,89.16
2017-03-30T23:29:04.905Z,89.25
2017-03-30T23:30:26.826Z,88.87
2017-03-30T23:31:48.595Z,88.68
2017-03-30T23:33:10.107Z,89.25
2017-03-30T23:34:31.950Z,88.97
2017-03-30T23:35:53.781Z,89.25
2017-03-30T23:37:15.260Z,89.45
2017-03-30T23:38:37.104Z,89.78
2017-03-30T23:39:58.926Z,90.17
2017-03-30T23:41:21.076Z,89.64
2017-03-30T23:42:43.207Z,89.97
2017-03-30T23:44:05.356Z,89.97
2017-03-30T23:45:27.167Z,89.97
2017-03-30T23:46:48.997Z,89.88
2017-03-30T23:48:11.166Z,90.17